sensor_id;sensor_type;location;lat;lon;timestamp;pressure;altitude;pressure_sealevel;temperature;humidity
12775;BME280;6451;42.630;23.382;2023-03-11T00:00:53;92623.88;;;11.35;100.00
12775;BME280;6451;42.630;23.382;2023-03-11T00:03:21;92637.75;;;11.55;100.00
12775;BME280;6451;42.630;23.382;2023-03-11T00:05:50;92648.31;;;11.35;100.00
12775;BME280;6451;42.630;23.382;2023-03-11T00:08:21;92613.13;;;10.81;100.00
12775;BME280;6451;42.630;23.382;2023-03-11T00:10:51;92698.00;;;10.89;100.00
12775;BME280;6451;42.630;23.382;2023-03-11T00:13:21;92692.94;;;10.63;100.00
12775;BME280;6451;42.630;23.382;2023-03-11T00:15:51;92657.97;;;10.18;100.00
12775;BME280;6451;42.630;23.382;2023-03-11T00:18:20;92602.03;;;9.42;100.00
12775;BME280;6451;42.630;23.382;2023-03-11T00:20:53;92659.81;;;9.79;100.00
12775;BME280;6451;42.630;23.382;2023-03-11T00:23:20;92673.38;;;9.82;100.00
12775;BME280;6451;42.630;23.382;2023-03-11T00:25:49;92672.16;;;9.69;100.00
12775;BME280;6451;42.630;23.382;2023-03-11T00:28:17;92651.53;;;9.39;100.00
12775;BME280;6451;42.630;23.382;2023-03-11T00:30:45;92671.31;;;9.51;100.00
12775;BME280;6451;42.630;23.382;2023-03-11T00:33:14;92661.25;;;9.44;100.00
12775;BME280;6451;42.630;23.382;2023-03-11T00:35:43;92665.47;;;9.38;100.00
12775;BME280;6451;42.630;23.382;2023-03-11T00:38:12;92616.16;;;9.00;100.00
12775;BME280;6451;42.630;23.382;2023-03-11T00:40:43;92653.44;;;9.32;100.00
12775;BME280;6451;42.630;23.382;2023-03-11T00:43:11;92648.41;;;9.34;100.00
12775;BME280;6451;42.630;23.382;2023-03-11T00:45:38;92665.06;;;9.39;100.00
12775;BME280;6451;42.630;23.382;2023-03-11T00:48:07;92661.22;;;9.40;100.00
12775;BME280;6451;42.630;23.382;2023-03-11T00:50:36;92658.06;;;9.35;100.00
12775;BME280;6451;42.630;23.382;2023-03-11T00:53:04;92627.09;;;9.25;100.00
12775;BME280;6451;42.630;23.382;2023-03-11T00:55:33;92630.16;;;9.20;100.00
12775;BME280;6451;42.630;23.382;2023-03-11T00:58:02;92635.63;;;9.24;100.00
12775;BME280;6451;42.630;23.382;2023-03-11T01:00:30;92625.94;;;9.26;100.00
12775;BME280;6451;42.630;23.382;2023-03-11T01:02:58;92600.81;;;9.26;100.00
12775;BME280;6451;42.630;23.382;2023-03-11T01:05:29;92613.22;;;9.30;100.00
12775;BME280;6451;42.630;23.382;2023-03-11T01:07:56;92614.00;;;9.34;100.00
12775;BME280;6451;42.630;23.382;2023-03-11T01:10:24;92611.25;;;9.27;100.00
12775;BME280;6451;42.630;23.382;2023-03-11T01:12:52;92608.59;;;9.31;100.00
12775;BME280;6451;42.630;23.382;2023-03-11T01:15:21;92603.94;;;9.31;100.00
12775;BME280;6451;42.630;23.382;2023-03-11T01:17:48;92597.72;;;9.24;100.00
12775;BME280;6451;42.630;23.382;2023-03-11T01:20:16;92608.19;;;9.29;100.00
12775;BME280;6451;42.630;23.382;2023-03-11T01:22:45;92600.41;;;9.16;100.00
12775;BME280;6451;42.630;23.382;2023-03-11T01:25:14;92598.00;;;9.04;100.00
12775;BME280;6451;42.630;23.382;2023-03-11T01:27:41;92594.53;;;9.04;100.00
12775;BME280;6451;42.630;23.382;2023-03-11T01:30:13;92587.25;;;9.18;100.00
12775;BME280;6451;42.630;23.382;2023-03-11T01:32:40;92598.44;;;9.06;100.00
12775;BME280;6451;42.630;23.382;2023-03-11T01:35:09;92519.84;;;8.74;100.00
12775;BME280;6451;42.630;23.382;2023-03-11T01:37:36;92594.22;;;9.12;100.00
12775;BME280;6451;42.630;23.382;2023-03-11T01:40:07;92560.94;;;9.12;100.00
12775;BME280;6451;42.630;23.382;2023-03-11T01:42:34;92533.88;;;9.08;100.00
12775;BME280;6451;42.630;23.382;2023-03-11T01:45:24;92529.97;;;8.91;100.00
12775;BME280;6451;42.630;23.382;2023-03-11T01:47:54;92531.84;;;8.87;100.00
12775;BME280;6451;42.630;23.382;2023-03-11T01:50:21;92524.16;;;8.93;100.00
12775;BME280;6451;42.630;23.382;2023-03-11T01:52:48;92527.63;;;8.90;100.00
12775;BME280;6451;42.630;23.382;2023-03-11T01:55:17;92534.13;;;8.75;100.00
12775;BME280;6451;42.630;23.382;2023-03-11T01:57:45;92525.25;;;8.74;100.00
12775;BME280;6451;42.630;23.382;2023-03-11T02:00:14;92515.56;;;8.70;100.00
12775;BME280;6451;42.630;23.382;2023-03-11T02:02:44;92533.28;;;8.63;100.00
12775;BME280;6451;42.630;23.382;2023-03-11T02:05:14;92554.56;;;8.72;100.00
12775;BME280;6451;42.630;23.382;2023-03-11T02:07:41;92583.28;;;8.95;100.00
12775;BME280;6451;42.630;23.382;2023-03-11T02:10:10;92590.97;;;8.89;100.00
12775;BME280;6451;42.630;23.382;2023-03-11T02:12:39;92576.53;;;8.60;100.00
12775;BME280;6451;42.630;23.382;2023-03-11T02:15:09;92592.47;;;8.76;100.00
12775;BME280;6451;42.630;23.382;2023-03-11T02:17:39;92531.25;;;8.50;100.00
12775;BME280;6451;42.630;23.382;2023-03-11T02:20:15;92574.66;;;8.68;100.00
12775;BME280;6451;42.630;23.382;2023-03-11T02:22:47;92607.53;;;8.80;100.00
12775;BME280;6451;42.630;23.382;2023-03-11T02:25:21;92550.97;;;8.50;100.00
12775;BME280;6451;42.630;23.382;2023-03-11T02:27:52;92620.28;;;8.76;100.00
12775;BME280;6451;42.630;23.382;2023-03-11T02:30:19;92626.13;;;8.82;100.00
12775;BME280;6451;42.630;23.382;2023-03-11T02:32:48;92617.28;;;8.96;100.00
12775;BME280;6451;42.630;23.382;2023-03-11T02:35:16;92604.53;;;8.96;100.00
12775;BME280;6451;42.630;23.382;2023-03-11T02:37:44;92612.69;;;9.00;100.00
12775;BME280;6451;42.630;23.382;2023-03-11T02:40:34;92597.63;;;8.99;100.00
12775;BME280;6451;42.630;23.382;2023-03-11T02:43:12;92592.47;;;8.76;100.00
12775;BME280;6451;42.630;23.382;2023-03-11T02:45:42;92623.41;;;8.85;100.00
12775;BME280;6451;42.630;23.382;2023-03-11T02:48:13;92570.31;;;8.52;100.00
12775;BME280;6451;42.630;23.382;2023-03-11T02:50:43;92619.50;;;8.76;100.00
12775;BME280;6451;42.630;23.382;2023-03-11T02:53:12;92632.25;;;8.75;100.00
12775;BME280;6451;42.630;23.382;2023-03-11T02:55:39;92578.03;;;8.54;100.00
12775;BME280;6451;42.630;23.382;2023-03-11T02:58:06;92615.31;;;8.89;100.00
12775;BME280;6451;42.630;23.382;2023-03-11T03:00:34;92641.31;;;9.08;100.00
12775;BME280;6451;42.630;23.382;2023-03-11T03:03:02;92622.44;;;9.18;100.00
12775;BME280;6451;42.630;23.382;2023-03-11T03:05:29;92607.31;;;9.07;100.00
12775;BME280;6451;42.630;23.382;2023-03-11T03:07:58;92618.88;;;9.04;100.00
12775;BME280;6451;42.630;23.382;2023-03-11T03:10:28;92611.09;;;8.95;100.00
12775;BME280;6451;42.630;23.382;2023-03-11T03:12:55;92626.22;;;9.03;100.00
12775;BME280;6451;42.630;23.382;2023-03-11T03:15:23;92610.41;;;9.05;100.00
12775;BME280;6451;42.630;23.382;2023-03-11T03:17:52;92614.63;;;9.03;100.00
12775;BME280;6451;42.630;23.382;2023-03-11T03:20:19;92623.84;;;8.91;100.00
12775;BME280;6451;42.630;23.382;2023-03-11T03:22:48;92595.13;;;8.72;100.00
12775;BME280;6451;42.630;23.382;2023-03-11T03:25:15;92605.22;;;8.79;100.00
12775;BME280;6451;42.630;23.382;2023-03-11T03:27:43;92608.00;;;8.93;100.00
12775;BME280;6451;42.630;23.382;2023-03-11T03:30:11;92599.84;;;8.86;100.00
12775;BME280;6451;42.630;23.382;2023-03-11T03:32:38;92601.72;;;8.75;100.00
12775;BME280;6451;42.630;23.382;2023-03-11T03:35:07;92612.69;;;9.03;100.00
12775;BME280;6451;42.630;23.382;2023-03-11T03:37:35;92612.03;;;9.21;100.00
12775;BME280;6451;42.630;23.382;2023-03-11T03:40:04;92608.19;;;9.32;100.00
12775;BME280;6451;42.630;23.382;2023-03-11T03:42:33;92540.75;;;8.88;100.00
12775;BME280;6451;42.630;23.382;2023-03-11T03:45:00;92603.16;;;9.27;100.00
12775;BME280;6451;42.630;23.382;2023-03-11T03:47:28;92583.91;;;9.54;100.00
12775;BME280;6451;42.630;23.382;2023-03-11T03:49:55;92549.41;;;9.22;100.00
12775;BME280;6451;42.630;23.382;2023-03-11T03:52:23;92585.41;;;9.40;100.00
12775;BME280;6451;42.630;23.382;2023-03-11T03:54:51;92577.72;;;9.46;100.00
12775;BME280;6451;42.630;23.382;2023-03-11T03:57:18;92571.19;;;9.61;100.00
12775;BME280;6451;42.630;23.382;2023-03-11T03:59:45;92547.13;;;9.38;100.00
12775;BME280;6451;42.630;23.382;2023-03-11T04:02:12;92519.63;;;9.22;100.00
12775;BME280;6451;42.630;23.382;2023-03-11T04:04:39;92575.44;;;9.66;100.00
12775;BME280;6451;42.630;23.382;2023-03-11T04:07:06;92573.16;;;9.75;100.00
12775;BME280;6451;42.630;23.382;2023-03-11T04:09:37;92561.91;;;9.59;100.00
12775;BME280;6451;42.630;23.382;2023-03-11T04:12:05;92591.69;;;9.66;100.00
12775;BME280;6451;42.630;23.382;2023-03-11T04:14:32;92596.72;;;9.67;100.00
12775;BME280;6451;42.630;23.382;2023-03-11T04:16:59;92585.09;;;9.63;100.00
12775;BME280;6451;42.630;23.382;2023-03-11T04:19:26;92599.38;;;9.50;100.00
12775;BME280;6451;42.630;23.382;2023-03-11T04:21:53;92603.22;;;9.41;100.00
12775;BME280;6451;42.630;23.382;2023-03-11T04:24:21;92547.00;;;8.99;100.00
12775;BME280;6451;42.630;23.382;2023-03-11T04:26:50;92587.69;;;9.24;100.00
12775;BME280;6451;42.630;23.382;2023-03-11T04:29:17;92614.41;;;9.36;100.00
12775;BME280;6451;42.630;23.382;2023-03-11T04:31:43;92580.31;;;9.14;100.00
12775;BME280;6451;42.630;23.382;2023-03-11T04:34:10;92616.00;;;9.48;100.00
12775;BME280;6451;42.630;23.382;2023-03-11T04:36:37;92598.22;;;9.43;100.00
12775;BME280;6451;42.630;23.382;2023-03-11T04:39:04;92614.44;;;9.47;100.00
12775;BME280;6451;42.630;23.382;2023-03-11T04:41:31;92605.59;;;9.54;100.00
12775;BME280;6451;42.630;23.382;2023-03-11T04:44:00;92574.59;;;9.37;100.00
12775;BME280;6451;42.630;23.382;2023-03-11T04:46:27;92567.28;;;9.48;100.00
12775;BME280;6451;42.630;23.382;2023-03-11T04:48:54;92592.78;;;9.51;100.00
12775;BME280;6451;42.630;23.382;2023-03-11T04:51:21;92589.38;;;9.61;100.00
12775;BME280;6451;42.630;23.382;2023-03-11T04:53:48;92590.91;;;9.62;100.00
12775;BME280;6451;42.630;23.382;2023-03-11T04:56:15;92567.75;;;9.82;100.00
12775;BME280;6451;42.630;23.382;2023-03-11T04:58:44;92600.97;;;9.72;100.00
12775;BME280;6451;42.630;23.382;2023-03-11T05:01:12;92608.00;;;9.87;100.00
12775;BME280;6451;42.630;23.382;2023-03-11T05:03:39;92597.16;;;9.84;100.00
12775;BME280;6451;42.630;23.382;2023-03-11T05:06:07;92597.56;;;10.00;100.00
12775;BME280;6451;42.630;23.382;2023-03-11T05:08:34;92587.09;;;9.77;100.00
12775;BME280;6451;42.630;23.382;2023-03-11T05:11:01;92594.47;;;9.91;100.00
12775;BME280;6451;42.630;23.382;2023-03-11T05:13:29;92606.47;;;10.00;100.00
12775;BME280;6451;42.630;23.382;2023-03-11T05:15:56;92604.53;;;9.97;100.00
12775;BME280;6451;42.630;23.382;2023-03-11T05:18:25;92607.25;;;10.12;100.00
12775;BME280;6451;42.630;23.382;2023-03-11T05:20:52;92583.63;;;9.94;100.00
12775;BME280;6451;42.630;23.382;2023-03-11T05:23:19;92607.69;;;10.42;100.00
12775;BME280;6451;42.630;23.382;2023-03-11T05:25:45;92603.84;;;10.47;100.00
12775;BME280;6451;42.630;23.382;2023-03-11T05:28:12;92560.84;;;10.38;100.00
12775;BME280;6451;42.630;23.382;2023-03-11T05:30:39;92601.09;;;10.86;100.00
12775;BME280;6451;42.630;23.382;2023-03-11T05:33:06;92608.06;;;10.98;100.00
12775;BME280;6451;42.630;23.382;2023-03-11T05:35:35;92605.75;;;10.89;100.00
12775;BME280;6451;42.630;23.382;2023-03-11T05:38:02;92609.19;;;11.00;100.00
12775;BME280;6451;42.630;23.382;2023-03-11T05:40:29;92531.00;;;10.49;100.00
12775;BME280;6451;42.630;23.382;2023-03-11T05:42:56;92611.88;;;11.18;100.00
12775;BME280;6451;42.630;23.382;2023-03-11T05:45:24;92611.84;;;11.32;100.00
12775;BME280;6451;42.630;23.382;2023-03-11T05:47:51;92605.63;;;11.35;100.00
12775;BME280;6451;42.630;23.382;2023-03-11T05:50:19;92584.75;;;11.11;100.00
12775;BME280;6451;42.630;23.382;2023-03-11T05:52:47;92618.03;;;11.33;100.00
12775;BME280;6451;42.630;23.382;2023-03-11T05:55:14;92542.97;;;10.83;100.00
12775;BME280;6451;42.630;23.382;2023-03-11T05:57:41;92632.41;;;11.30;100.00
12775;BME280;6451;42.630;23.382;2023-03-11T06:00:09;92638.56;;;11.41;100.00
12775;BME280;6451;42.630;23.382;2023-03-11T06:02:37;92643.25;;;11.33;100.00
12775;BME280;6451;42.630;23.382;2023-03-11T06:05:06;92648.69;;;11.30;100.00
12775;BME280;6451;42.630;23.382;2023-03-11T06:07:33;92647.13;;;11.32;100.00
12775;BME280;6451;42.630;23.382;2023-03-11T06:10:05;92647.16;;;11.22;100.00
12775;BME280;6451;42.630;23.382;2023-03-11T06:12:32;92648.28;;;11.31;100.00
12775;BME280;6451;42.630;23.382;2023-03-11T06:15:01;92640.19;;;11.28;100.00
12775;BME280;6451;42.630;23.382;2023-03-11T06:17:27;92640.94;;;11.25;100.00
12775;BME280;6451;42.630;23.382;2023-03-11T06:19:54;92643.66;;;11.28;100.00
12775;BME280;6451;42.630;23.382;2023-03-11T06:22:21;92644.84;;;11.20;100.00
12775;BME280;6451;42.630;23.382;2023-03-11T06:24:49;92639.84;;;11.04;100.00
12775;BME280;6451;42.630;23.382;2023-03-11T06:27:18;92652.22;;;11.16;100.00
12775;BME280;6451;42.630;23.382;2023-03-11T06:29:44;92633.97;;;11.17;100.00
12775;BME280;6451;42.630;23.382;2023-03-11T06:32:11;92649.09;;;11.21;100.00
12775;BME280;6451;42.630;23.382;2023-03-11T06:34:38;92649.50;;;11.16;100.00
12775;BME280;6451;42.630;23.382;2023-03-11T06:37:05;92623.16;;;11.13;100.00
12775;BME280;6451;42.630;23.382;2023-03-11T06:39:33;92649.84;;;11.32;100.00
12775;BME280;6451;42.630;23.382;2023-03-11T06:42:03;92609.59;;;11.06;100.00
12775;BME280;6451;42.630;23.382;2023-03-11T06:44:32;92660.28;;;11.52;100.00
12775;BME280;6451;42.630;23.382;2023-03-11T06:47:01;92656.38;;;11.49;100.00
12775;BME280;6451;42.630;23.382;2023-03-11T06:49:28;92630.84;;;11.36;100.00
12775;BME280;6451;42.630;23.382;2023-03-11T06:51:55;92653.66;;;11.56;100.00
12775;BME280;6451;42.630;23.382;2023-03-11T06:54:26;92659.06;;;11.63;100.00
12775;BME280;6451;42.630;23.382;2023-03-11T06:56:53;92635.84;;;11.41;100.00
12775;BME280;6451;42.630;23.382;2023-03-11T06:59:20;92608.28;;;11.50;100.00
12775;BME280;6451;42.630;23.382;2023-03-11T07:01:49;92653.22;;;11.65;100.00
12775;BME280;6451;42.630;23.382;2023-03-11T07:04:16;92636.16;;;11.68;100.00
12775;BME280;6451;42.630;23.382;2023-03-11T07:06:45;92652.81;;;11.81;100.00
12775;BME280;6451;42.630;23.382;2023-03-11T07:09:12;92651.31;;;11.65;100.00
12775;BME280;6451;42.630;23.382;2023-03-11T07:11:40;92664.16;;;11.51;100.00
12775;BME280;6451;42.630;23.382;2023-03-11T07:14:08;92662.25;;;11.37;100.00
12775;BME280;6451;42.630;23.382;2023-03-11T07:16:37;92653.66;;;11.49;100.00
12775;BME280;6451;42.630;23.382;2023-03-11T07:19:08;92661.81;;;11.56;100.00
12775;BME280;6451;42.630;23.382;2023-03-11T07:21:36;92656.78;;;11.58;100.00
12775;BME280;6451;42.630;23.382;2023-03-11T07:24:04;92636.97;;;11.58;100.00
12775;BME280;6451;42.630;23.382;2023-03-11T07:26:33;92636.13;;;11.72;100.00
12775;BME280;6451;42.630;23.382;2023-03-11T07:29:00;92648.94;;;11.75;100.00
12775;BME280;6451;42.630;23.382;2023-03-11T07:31:29;92620.22;;;11.74;100.00
12775;BME280;6451;42.630;23.382;2023-03-11T07:33:59;92621.34;;;11.80;100.00
12775;BME280;6451;42.630;23.382;2023-03-11T07:36:28;92601.19;;;11.81;100.00
12775;BME280;6451;42.630;23.382;2023-03-11T07:38:57;92616.63;;;11.98;100.00
12775;BME280;6451;42.630;23.382;2023-03-11T07:41:25;92646.88;;;12.07;100.00
12775;BME280;6451;42.630;23.382;2023-03-11T07:43:54;92622.50;;;11.86;100.00
12775;BME280;6451;42.630;23.382;2023-03-11T07:46:23;92608.97;;;11.72;100.00
12775;BME280;6451;42.630;23.382;2023-03-11T07:48:59;92627.94;;;11.79;100.00
12775;BME280;6451;42.630;23.382;2023-03-11T07:51:29;92584.63;;;11.47;100.00
12775;BME280;6451;42.630;23.382;2023-03-11T07:53:58;92613.59;;;11.85;100.00
12775;BME280;6451;42.630;23.382;2023-03-11T07:56:29;92595.34;;;11.86;100.00
12775;BME280;6451;42.630;23.382;2023-03-11T07:58:58;92600.75;;;11.93;100.00
12775;BME280;6451;42.630;23.382;2023-03-11T08:01:26;92602.72;;;11.89;100.00
12775;BME280;6451;42.630;23.382;2023-03-11T08:04:01;92572.03;;;11.88;100.00
12775;BME280;6451;42.630;23.382;2023-03-11T08:06:32;92573.47;;;12.07;100.00
12775;BME280;6451;42.630;23.382;2023-03-11T08:09:00;92567.84;;;12.32;100.00
12775;BME280;6451;42.630;23.382;2023-03-11T08:11:29;92533.91;;;11.99;100.00
12775;BME280;6451;42.630;23.382;2023-03-11T08:13:56;92560.06;;;12.38;100.00
12775;BME280;6451;42.630;23.382;2023-03-11T08:16:23;92566.50;;;12.55;100.00
12775;BME280;6451;42.630;23.382;2023-03-11T08:18:51;92549.59;;;12.77;100.00
12775;BME280;6451;42.630;23.382;2023-03-11T08:21:20;92536.69;;;12.85;100.00
12775;BME280;6451;42.630;23.382;2023-03-11T08:23:50;92556.34;;;13.03;100.00
12775;BME280;6451;42.630;23.382;2023-03-11T08:26:19;92544.66;;;13.03;99.91
12775;BME280;6451;42.630;23.382;2023-03-11T08:28:47;92529.50;;;13.05;95.88
12775;BME280;6451;42.630;23.382;2023-03-11T08:31:16;92525.22;;;13.04;93.12
12775;BME280;6451;42.630;23.382;2023-03-11T08:33:46;92538.22;;;13.27;93.62
12775;BME280;6451;42.630;23.382;2023-03-11T08:36:14;92536.09;;;13.42;91.33
12775;BME280;6451;42.630;23.382;2023-03-11T08:38:43;92523.19;;;13.46;90.27
12775;BME280;6451;42.630;23.382;2023-03-11T08:41:12;92525.16;;;13.46;87.29
12775;BME280;6451;42.630;23.382;2023-03-11T08:43:39;92496.09;;;13.35;90.30
12775;BME280;6451;42.630;23.382;2023-03-11T08:46:07;92522.19;;;13.63;85.08
12775;BME280;6451;42.630;23.382;2023-03-11T08:48:35;92519.19;;;13.54;89.71
12775;BME280;6451;42.630;23.382;2023-03-11T08:51:08;92522.47;;;13.73;89.85
12775;BME280;6451;42.630;23.382;2023-03-11T08:53:35;92514.19;;;13.80;89.20
12775;BME280;6451;42.630;23.382;2023-03-11T08:56:03;92503.06;;;13.67;88.60
12775;BME280;6451;42.630;23.382;2023-03-11T08:58:31;92467.09;;;13.22;85.02
12775;BME280;6451;42.630;23.382;2023-03-11T09:00:58;92517.31;;;13.51;87.46
12775;BME280;6451;42.630;23.382;2023-03-11T09:03:30;92494.41;;;13.45;88.80
12775;BME280;6451;42.630;23.382;2023-03-11T09:05:57;92488.44;;;13.57;88.29
12775;BME280;6451;42.630;23.382;2023-03-11T09:08:24;92496.75;;;13.74;88.75
12775;BME280;6451;42.630;23.382;2023-03-11T09:10:51;92492.44;;;13.76;84.32
12775;BME280;6451;42.630;23.382;2023-03-11T09:13:18;92504.63;;;13.95;83.56
12775;BME280;6451;42.630;23.382;2023-03-11T09:15:46;92500.94;;;13.82;84.94
12775;BME280;6451;42.630;23.382;2023-03-11T09:18:15;92509.72;;;13.66;83.60
12775;BME280;6451;42.630;23.382;2023-03-11T09:20:42;92505.63;;;13.51;84.12
12775;BME280;6451;42.630;23.382;2023-03-11T09:23:11;92487.91;;;13.66;86.03
12775;BME280;6451;42.630;23.382;2023-03-11T09:25:38;92481.22;;;13.71;86.96
12775;BME280;6451;42.630;23.382;2023-03-11T09:28:05;92487.34;;;13.78;87.47
12775;BME280;6451;42.630;23.382;2023-03-11T09:30:35;92468.75;;;13.73;86.56
12775;BME280;6451;42.630;23.382;2023-03-11T09:33:04;92469.09;;;13.75;91.55
12775;BME280;6451;42.630;23.382;2023-03-11T09:35:31;92454.81;;;13.64;92.32
12775;BME280;6451;42.630;23.382;2023-03-11T09:37:58;92484.34;;;13.69;94.54
12775;BME280;6451;42.630;23.382;2023-03-11T09:40:27;92480.25;;;13.57;95.00
12775;BME280;6451;42.630;23.382;2023-03-11T09:43:05;92480.50;;;13.67;91.51
12775;BME280;6451;42.630;23.382;2023-03-11T09:45:41;92462.59;;;13.93;90.55
12775;BME280;6451;42.630;23.382;2023-03-11T09:48:18;92440.00;;;13.92;86.72
12775;BME280;6451;42.630;23.382;2023-03-11T09:50:50;92446.59;;;14.18;86.88
12775;BME280;6451;42.630;23.382;2023-03-11T09:53:28;92477.44;;;14.38;83.71
12775;BME280;6451;42.630;23.382;2023-03-11T09:56:01;92471.38;;;14.54;84.35
12775;BME280;6451;42.630;23.382;2023-03-11T09:58:36;92462.38;;;14.77;83.40
12775;BME280;6451;42.630;23.382;2023-03-11T10:01:13;92349.75;;;13.86;81.15
12775;BME280;6451;42.630;23.382;2023-03-11T10:03:44;92461.91;;;14.82;77.61
12775;BME280;6451;42.630;23.382;2023-03-11T10:06:15;92463.84;;;14.82;77.37
12775;BME280;6451;42.630;23.382;2023-03-11T10:08:46;92464.13;;;14.67;78.27
12775;BME280;6451;42.630;23.382;2023-03-11T10:14:33;92479.72;;;14.67;77.05
12775;BME280;6451;42.630;23.382;2023-03-11T10:17:12;92485.97;;;14.87;77.81
12775;BME280;6451;42.630;23.382;2023-03-11T10:19:47;92479.56;;;14.97;75.85
12775;BME280;6451;42.630;23.382;2023-03-11T10:22:26;92465.31;;;14.86;75.75
12775;BME280;6451;42.630;23.382;2023-03-11T10:25:02;92463.84;;;15.01;75.09
12775;BME280;6451;42.630;23.382;2023-03-11T10:27:36;92482.72;;;14.96;75.28
12775;BME280;6451;42.630;23.382;2023-03-11T10:30:12;92482.16;;;15.05;75.72
12775;BME280;6451;42.630;23.382;2023-03-11T10:32:44;92488.31;;;15.28;74.18
12775;BME280;6451;42.630;23.382;2023-03-11T10:35:20;92488.59;;;15.34;72.52
12775;BME280;6451;42.630;23.382;2023-03-11T10:37:52;92494.19;;;15.47;71.89
12775;BME280;6451;42.630;23.382;2023-03-11T10:40:28;92480.31;;;15.57;71.82
12775;BME280;6451;42.630;23.382;2023-03-11T10:42:59;92262.19;;;13.61;69.10
12775;BME280;6451;42.630;23.382;2023-03-11T10:45:33;92495.53;;;15.19;69.29
12775;BME280;6451;42.630;23.382;2023-03-11T10:48:07;92363.47;;;14.50;69.10
12775;BME280;6451;42.630;23.382;2023-03-11T10:50:45;92468.28;;;14.95;69.42
12775;BME280;6451;42.630;23.382;2023-03-11T10:53:15;92491.75;;;15.13;68.53
12775;BME280;6451;42.630;23.382;2023-03-11T10:55:45;92493.03;;;14.85;69.58
12775;BME280;6451;42.630;23.382;2023-03-11T10:58:15;92470.13;;;14.79;71.48
12775;BME280;6451;42.630;23.382;2023-03-11T11:00:42;92492.41;;;14.54;73.92
12775;BME280;6451;42.630;23.382;2023-03-11T11:03:20;92498.13;;;14.12;79.63
12775;BME280;6451;42.630;23.382;2023-03-11T11:05:59;92516.81;;;13.60;87.73
12775;BME280;6451;42.630;23.382;2023-03-11T11:08:29;92521.09;;;12.89;100.00
12775;BME280;6451;42.630;23.382;2023-03-11T11:10:57;92522.16;;;12.61;100.00
12775;BME280;6451;42.630;23.382;2023-03-11T11:13:26;92526.13;;;12.49;100.00
12775;BME280;6451;42.630;23.382;2023-03-11T11:15:57;92489.22;;;12.48;100.00
12775;BME280;6451;42.630;23.382;2023-03-11T11:18:27;92512.94;;;12.89;100.00
12775;BME280;6451;42.630;23.382;2023-03-11T11:21:01;92451.28;;;12.72;100.00
12775;BME280;6451;42.630;23.382;2023-03-11T11:23:36;92511.13;;;13.47;100.00
12775;BME280;6451;42.630;23.382;2023-03-11T11:26:06;92502.84;;;13.54;100.00
12775;BME280;6451;42.630;23.382;2023-03-11T11:28:34;92492.59;;;13.66;100.00
12775;BME280;6451;42.630;23.382;2023-03-11T11:31:03;92470.91;;;13.55;100.00
12775;BME280;6451;42.630;23.382;2023-03-11T11:33:32;92502.41;;;13.86;100.00
12775;BME280;6451;42.630;23.382;2023-03-11T11:36:02;92494.66;;;13.85;100.00
12775;BME280;6451;42.630;23.382;2023-03-11T11:38:31;92494.75;;;13.78;100.00
12775;BME280;6451;42.630;23.382;2023-03-11T11:41:02;92410.06;;;13.38;100.00
12775;BME280;6451;42.630;23.382;2023-03-11T11:43:38;92472.72;;;13.92;100.00
12775;BME280;6451;42.630;23.382;2023-03-11T11:46:12;92411.22;;;13.64;100.00
12775;BME280;6451;42.630;23.382;2023-03-11T11:48:48;92470.66;;;14.00;100.00
12775;BME280;6451;42.630;23.382;2023-03-11T11:51:19;92458.91;;;14.03;100.00
12775;BME280;6451;42.630;23.382;2023-03-11T11:53:51;92439.91;;;14.23;92.76
12775;BME280;6451;42.630;23.382;2023-03-11T11:56:23;92437.00;;;14.33;89.91
12775;BME280;6451;42.630;23.382;2023-03-11T11:58:51;92433.16;;;14.54;88.62
12775;BME280;6451;42.630;23.382;2023-03-11T12:01:27;92443.25;;;14.77;88.60
12775;BME280;6451;42.630;23.382;2023-03-11T12:04:31;92388.59;;;14.37;90.11
12775;BME280;6451;42.630;23.382;2023-03-11T12:07:15;92434.09;;;14.87;87.65
12775;BME280;6451;42.630;23.382;2023-03-11T12:09:51;92430.81;;;14.96;78.97
12775;BME280;6451;42.630;23.382;2023-03-11T12:12:26;92429.75;;;14.90;73.92
12775;BME280;6451;42.630;23.382;2023-03-11T12:15:01;92424.50;;;14.79;72.56
12775;BME280;6451;42.630;23.382;2023-03-11T12:17:35;92434.09;;;14.87;72.69
12775;BME280;6451;42.630;23.382;2023-03-11T12:20:08;92429.41;;;15.08;72.35
12775;BME280;6451;42.630;23.382;2023-03-11T12:22:49;92422.31;;;15.10;72.31
12775;BME280;6451;42.630;23.382;2023-03-11T12:25:27;92421.22;;;15.08;72.45
12775;BME280;6451;42.630;23.382;2023-03-11T12:28:00;92416.50;;;15.28;72.88
12775;BME280;6451;42.630;23.382;2023-03-11T12:30:35;92403.28;;;15.07;68.61
12775;BME280;6451;42.630;23.382;2023-03-11T12:33:12;92427.44;;;15.28;67.92
12775;BME280;6451;42.630;23.382;2023-03-11T12:35:47;92389.41;;;15.17;70.10
12775;BME280;6451;42.630;23.382;2023-03-11T12:38:26;92443.66;;;15.91;71.41
12775;BME280;6451;42.630;23.382;2023-03-11T12:40:59;92417.06;;;15.55;72.18
12775;BME280;6451;42.630;23.382;2023-03-11T12:49:43;92445.56;;;15.38;77.83
12775;BME280;6451;42.630;23.382;2023-03-11T12:52:32;92450.56;;;15.04;79.19
12775;BME280;6451;42.630;23.382;2023-03-11T12:55:30;92442.66;;;14.89;79.54
12775;BME280;6451;42.630;23.382;2023-03-11T13:00:58;92435.72;;;15.05;78.15
12775;BME280;6451;42.630;23.382;2023-03-11T13:03:49;92448.00;;;15.52;76.64
12775;BME280;6451;42.630;23.382;2023-03-11T13:06:39;92450.53;;;15.43;76.78
12775;BME280;6451;42.630;23.382;2023-03-11T13:09:15;92431.88;;;15.58;75.62
12775;BME280;6451;42.630;23.382;2023-03-11T13:11:46;92462.53;;;15.85;75.37
12775;BME280;6451;42.630;23.382;2023-03-11T13:14:34;92456.22;;;15.89;75.84
12775;BME280;6451;42.630;23.382;2023-03-11T13:17:32;92468.81;;;15.46;74.43
12775;BME280;6451;42.630;23.382;2023-03-11T13:19:59;92445.53;;;14.82;74.73
12775;BME280;6451;42.630;23.382;2023-03-11T13:26:04;92475.03;;;14.44;73.93
12775;BME280;6451;42.630;23.382;2023-03-11T13:31:42;92486.16;;;14.30;76.06